Time;durP1;ratioP1;P1;durP2;ratioP2;P2;SDS_P1;SDS_P2;PMS_P1;PMS_P2;Temp;Humidity;BMP_temperature;BMP_pressure;BME280_temperature;BME280_humidity;BME280_pressure;Samples;Min_cycle;Max_cycle;Signal;HPM_P1;HPM_P2
2023/08/18 00:00:08;;;;;;;4.70;1.75;;;17.20;99.90;;;;;;5022766;28;20037;-57
2023/08/18 00:02:34;;;;;;;3.55;1.60;;;17.10;99.90;;;;;;5023584;28;20068;-58
2023/08/18 00:05:00;;;;;;;3.30;1.67;;;17.10;99.90;;;;;;5014014;28;20415;-58
2023/08/18 00:07:25;;;;;;;3.03;1.60;;;17.10;99.90;;;;;;5029177;28;20065;-57
2023/08/18 00:09:51;;;;;;;3.88;1.75;;;17.10;99.90;;;;;;5009389;28;20139;-57
2023/08/18 00:12:17;;;;;;;3.90;1.88;;;17.00;99.90;;;;;;5009435;28;20044;-58
2023/08/18 00:14:42;;;;;;;3.47;1.80;;;17.20;99.90;;;;;;5009400;28;20083;-57
2023/08/18 00:17:09;;;;;;;4.55;1.70;;;16.90;99.90;;;;;;5023162;28;20053;-58
2023/08/18 00:19:35;;;;;;;5.30;2.08;;;17.00;99.90;;;;;;5029188;28;20467;-57
2023/08/18 00:22:01;;;;;;;5.00;1.83;;;17.00;99.90;;;;;;5028768;28;20128;-58
2023/08/18 00:24:26;;;;;;;4.07;1.85;;;17.00;99.90;;;;;;5028858;28;20077;-57
2023/08/18 00:26:52;;;;;;;4.40;1.77;;;17.00;99.90;;;;;;5028469;28;20534;-58
2023/08/18 00:29:17;;;;;;;4.00;1.88;;;17.00;99.90;;;;;;5029028;28;20201;-56
2023/08/18 00:31:43;;;;;;;3.67;1.90;;;17.00;99.90;;;;;;5027864;28;20045;-56
2023/08/18 00:34:09;;;;;;;3.88;1.55;;;17.00;99.90;;;;;;5028211;28;20851;-58
2023/08/18 00:36:35;;;;;;;5.53;1.88;;;17.00;99.90;;;;;;5029210;28;20053;-57
2023/08/18 00:39:02;;;;;;;3.83;1.98;;;17.00;99.90;;;;;;5024135;28;20382;-57
2023/08/18 00:41:28;;;;;;;3.08;1.60;;;17.00;99.90;;;;;;5008343;28;20508;-57
2023/08/18 00:43:54;;;;;;;2.50;1.58;;;17.20;99.90;;;;;;5008263;28;20061;-58
2023/08/18 00:46:21;;;;;;;2.60;1.60;;;17.00;99.90;;;;;;5007695;28;20037;-57
2023/08/18 00:48:48;;;;;;;3.17;1.70;;;17.00;99.90;;;;;;5008611;28;20132;-57
2023/08/18 00:51:14;;;;;;;3.60;1.90;;;17.00;99.90;;;;;;5007884;28;20058;-56
2023/08/18 00:53:41;;;;;;;4.53;2.03;;;17.00;99.90;;;;;;5008914;28;20315;-58
2023/08/18 00:56:08;;;;;;;4.10;2.10;;;17.00;99.90;;;;;;5012958;28;20056;-57
2023/08/18 00:58:36;;;;;;;4.82;1.65;;;17.00;99.90;;;;;;5014807;28;20046;-57
2023/08/18 01:01:02;;;;;;;2.97;2.00;;;17.00;99.90;;;;;;5007388;28;20129;-57
2023/08/18 01:03:30;;;;;;;3.90;1.92;;;17.00;99.90;;;;;;5008392;28;20049;-58
2023/08/18 01:05:56;;;;;;;4.88;2.30;;;17.00;99.90;;;;;;5008049;28;20121;-58
2023/08/18 01:08:21;;;;;;;4.75;2.20;;;17.00;99.90;;;;;;5007517;28;20157;-57
2023/08/18 01:11:09;;;;;;;4.30;1.98;;;17.10;99.90;;;;;;5006823;28;20646;-58
2023/08/18 01:13:34;;;;;;;3.42;2.20;;;17.00;99.90;;;;;;5071209;22;20073;-57
2023/08/18 01:16:03;;;;;;;4.72;2.15;;;17.00;99.90;;;;;;5003957;28;20084;-57
2023/08/18 01:18:29;;;;;;;3.10;2.00;;;17.00;99.90;;;;;;5008008;28;20133;-58
2023/08/18 01:20:58;;;;;;;3.35;2.10;;;16.90;99.90;;;;;;5026458;28;20075;-58
2023/08/18 01:23:36;;;;;;;3.83;2.38;;;16.90;99.90;;;;;;5027089;28;20472;-58
2023/08/18 01:26:02;;;;;;;4.13;2.33;;;16.90;99.90;;;;;;5027101;28;20255;-58
2023/08/18 01:28:28;;;;;;;5.10;2.40;;;16.90;99.90;;;;;;5023873;28;20053;-58
2023/08/18 01:30:54;;;;;;;3.65;2.75;;;16.90;99.90;;;;;;5006266;28;20400;-58
2023/08/18 01:33:23;;;;;;;4.45;2.50;;;16.90;99.90;;;;;;5007719;28;20049;-58
2023/08/18 01:35:50;;;;;;;6.57;2.60;;;16.90;99.90;;;;;;5006705;28;20042;-57
2023/08/18 01:38:21;;;;;;;4.22;2.40;;;16.90;99.90;;;;;;5007287;28;20535;-57
2023/08/18 01:40:49;;;;;;;5.18;2.58;;;16.90;99.90;;;;;;5007494;28;20065;-58
2023/08/18 01:43:14;;;;;;;4.82;2.95;;;16.90;99.90;;;;;;5007367;28;20046;-58
2023/08/18 01:45:40;;;;;;;4.70;2.80;;;16.90;99.90;;;;;;5007050;28;20038;-58
2023/08/18 01:48:06;;;;;;;5.63;2.70;;;16.90;99.90;;;;;;5002872;28;20125;-57
2023/08/18 01:50:31;;;;;;;7.85;3.17;;;16.90;99.90;;;;;;5007088;28;20053;-58
2023/08/18 01:52:57;;;;;;;4.53;3.00;;;16.90;99.90;;;;;;5006460;28;20045;-58
2023/08/18 01:55:22;;;;;;;4.85;2.88;;;16.90;99.90;;;;;;5004799;28;20532;-58
2023/08/18 01:57:48;;;;;;;5.88;2.92;;;16.90;99.90;;;;;;5002426;28;20054;-57
2023/08/18 02:00:14;;;;;;;4.45;2.72;;;16.90;99.90;;;;;;4994647;28;20034;-58
2023/08/18 02:02:39;;;;;;;4.28;2.97;;;16.90;99.90;;;;;;5005664;28;20498;-56
2023/08/18 02:05:05;;;;;;;5.05;2.90;;;16.90;99.90;;;;;;5006888;28;20042;-58
2023/08/18 02:07:31;;;;;;;5.93;3.10;;;16.90;99.90;;;;;;5006129;28;20405;-58
2023/08/18 02:09:57;;;;;;;6.72;3.20;;;16.90;99.90;;;;;;5005468;28;20037;-57
2023/08/18 02:12:22;;;;;;;5.70;3.10;;;16.90;99.90;;;;;;5006911;28;20050;-57
2023/08/18 02:14:48;;;;;;;5.72;3.55;;;16.90;99.90;;;;;;5004894;28;20389;-58
2023/08/18 02:17:14;;;;;;;6.10;3.50;;;16.80;99.90;;;;;;5006217;28;20156;-58
2023/08/18 02:19:39;;;;;;;4.45;3.00;;;16.80;99.90;;;;;;5006438;28;20412;-57
2023/08/18 02:22:05;;;;;;;5.85;3.28;;;16.90;99.90;;;;;;5006057;28;20045;-58
2023/08/18 02:24:30;;;;;;;6.55;3.60;;;16.90;99.90;;;;;;5004983;28;20137;-57
2023/08/18 02:26:56;;;;;;;5.63;3.55;;;16.90;99.90;;;;;;5006301;28;20053;-58
2023/08/18 02:29:22;;;;;;;5.80;3.50;;;16.80;99.90;;;;;;5004466;28;20042;-57
2023/08/18 02:31:47;;;;;;;7.22;3.83;;;16.90;99.90;;;;;;5005234;28;20447;-58
2023/08/18 02:34:13;;;;;;;4.82;3.10;;;16.80;99.90;;;;;;5005654;28;20048;-57
2023/08/18 02:36:38;;;;;;;5.20;3.45;;;16.90;99.90;;;;;;5006053;28;20558;-58
2023/08/18 02:39:04;;;;;;;6.82;3.83;;;16.80;99.90;;;;;;5005803;28;20045;-57
2023/08/18 02:41:30;;;;;;;6.93;3.95;;;16.80;99.90;;;;;;5006003;28;20100;-57
2023/08/18 02:43:55;;;;;;;5.22;3.97;;;16.80;99.90;;;;;;5004645;28;20046;-57
2023/08/18 02:46:21;;;;;;;5.78;3.90;;;16.70;99.90;;;;;;4995628;28;20445;-57
2023/08/18 02:48:47;;;;;;;5.35;3.92;;;16.70;99.90;;;;;;4986521;28;20046;-57
2023/08/18 02:51:12;;;;;;;7.15;4.05;;;16.70;99.90;;;;;;4986586;28;20096;-57
2023/08/18 02:53:38;;;;;;;5.90;3.78;;;16.70;99.90;;;;;;4984733;28;20389;-58
2023/08/18 02:56:04;;;;;;;7.68;4.18;;;16.70;99.90;;;;;;4991600;28;20056;-57
2023/08/18 02:58:31;;;;;;;5.93;4.13;;;16.60;99.90;;;;;;4998628;28;20117;-58
2023/08/18 03:01:02;;;;;;;6.45;4.22;;;16.60;99.90;;;;;;5004499;28;20449;-57
2023/08/18 03:03:28;;;;;;;7.72;4.20;;;16.60;99.90;;;;;;5005677;28;20451;-56
2023/08/18 03:05:53;;;;;;;6.90;4.47;;;16.60;99.90;;;;;;5006060;28;20058;-58
2023/08/18 03:08:19;;;;;;;6.05;3.97;;;16.60;99.90;;;;;;5005350;28;20065;-58
2023/08/18 03:10:57;;;;;;;8.38;4.40;;;16.60;99.90;;;;;;5006142;28;20520;-58
2023/08/18 03:13:23;;;;;;;6.47;4.70;;;16.60;99.90;;;;;;5005621;28;20053;-57
2023/08/18 03:15:48;;;;;;;9.02;4.85;;;16.60;99.90;;;;;;5002851;28;20054;-58
2023/08/18 03:18:14;;;;;;;7.80;4.93;;;16.60;99.90;;;;;;5006218;28;20037;-58
2023/08/18 03:20:39;;;;;;;6.43;4.40;;;16.60;99.90;;;;;;5005168;28;20406;-57
2023/08/18 03:23:05;;;;;;;7.78;4.53;;;16.60;99.90;;;;;;4987401;28;20633;-57
2023/08/18 03:25:31;;;;;;;8.63;4.47;;;16.60;99.90;;;;;;5005274;28;20515;-57
2023/08/18 03:27:56;;;;;;;7.40;4.20;;;16.60;99.90;;;;;;5005496;28;20513;-58
2023/08/18 03:30:22;;;;;;;8.35;4.70;;;16.60;99.90;;;;;;5004325;28;20046;-58
2023/08/18 03:32:50;;;;;;;7.88;4.43;;;16.60;99.90;;;;;;5005586;28;20866;-58
2023/08/18 03:35:16;;;;;;;8.90;4.80;;;16.60;99.90;;;;;;5004750;28;20104;-58
2023/08/18 03:37:41;;;;;;;7.43;4.00;;;16.60;99.90;;;;;;5005352;28;20046;-58
2023/08/18 03:40:07;;;;;;;5.47;4.45;;;16.60;99.90;;;;;;5004824;28;20088;-57
2023/08/18 03:42:33;;;;;;;7.13;5.05;;;16.60;99.90;;;;;;5004039;28;20061;-56
2023/08/18 03:44:59;;;;;;;7.85;4.50;;;16.60;99.90;;;;;;5004822;28;20048;-58
2023/08/18 03:47:25;;;;;;;5.13;4.22;;;16.70;99.90;;;;;;5005027;28;20053;-58
2023/08/18 03:49:50;;;;;;;6.88;4.40;;;16.60;99.90;;;;;;5002471;28;20041;-58
2023/08/18 03:52:16;;;;;;;5.70;4.30;;;16.80;99.90;;;;;;5004704;28;20063;-58
2023/08/18 03:54:42;;;;;;;6.80;4.22;;;16.60;99.90;;;;;;5004302;28;20143;-58
2023/08/18 03:57:08;;;;;;;8.60;4.80;;;16.70;99.90;;;;;;4996049;28;20124;-56
2023/08/18 03:59:33;;;;;;;8.07;4.40;;;16.70;99.90;;;;;;4998722;28;20042;-58
2023/08/18 04:01:59;;;;;;;6.93;4.40;;;16.70;99.90;;;;;;4986323;28;20046;-56
2023/08/18 04:04:24;;;;;;;7.43;4.55;;;16.70;99.90;;;;;;4985837;28;20092;-57
2023/08/18 04:06:50;;;;;;;5.68;4.43;;;16.70;99.90;;;;;;4988062;28;20382;-57
2023/08/18 04:09:16;;;;;;;10.45;4.18;;;16.70;99.90;;;;;;5005206;28;20034;-58
2023/08/18 04:11:43;;;;;;;6.07;3.95;;;16.70;99.90;;;;;;5005335;28;20080;-57
2023/08/18 04:14:09;;;;;;;6.82;4.43;;;16.70;99.90;;;;;;5004073;28;20392;-57
2023/08/18 04:16:34;;;;;;;6.93;4.20;;;16.70;99.90;;;;;;5002449;28;20056;-56
2023/08/18 04:19:06;;;;;;;7.35;4.57;;;16.70;99.90;;;;;;5004754;28;20518;-57
2023/08/18 04:21:32;;;;;;;7.35;4.75;;;16.80;99.90;;;;;;5004753;28;20045;-58
2023/08/18 04:23:58;;;;;;;7.50;4.07;;;16.80;99.90;;;;;;5005072;28;20053;-57
2023/08/18 04:26:24;;;;;;;6.68;3.92;;;16.80;99.90;;;;;;5004751;28;20092;-58
2023/08/18 04:28:49;;;;;;;8.60;4.03;;;16.80;99.90;;;;;;5005220;28;20045;-58
2023/08/18 04:31:15;;;;;;;5.03;3.83;;;16.80;99.90;;;;;;5003383;28;20396;-58
2023/08/18 04:33:40;;;;;;;9.05;4.45;;;16.90;99.90;;;;;;5004181;28;20054;-58
2023/08/18 04:36:06;;;;;;;6.88;4.25;;;16.80;99.90;;;;;;5004678;28;20046;-56
2023/08/18 04:38:32;;;;;;;6.38;3.88;;;16.80;99.90;;;;;;5004769;28;20081;-57
2023/08/18 04:41:02;;;;;;;6.97;4.38;;;16.70;99.90;;;;;;5004664;28;20072;-57
2023/08/18 04:43:29;;;;;;;6.00;4.13;;;16.80;99.90;;;;;;5004291;28;20054;-56
2023/08/18 04:45:54;;;;;;;6.22;4.25;;;16.80;99.90;;;;;;5003628;28;20042;-57
2023/08/18 04:48:21;;;;;;;6.68;3.90;;;16.80;99.90;;;;;;5007528;28;20112;-57
2023/08/18 04:50:47;;;;;;;8.40;4.20;;;16.80;99.90;;;;;;5008272;28;20054;-57
2023/08/18 04:53:13;;;;;;;7.95;4.43;;;17.00;99.90;;;;;;5007657;28;20045;-57
2023/08/18 04:55:39;;;;;;;7.55;3.67;;;16.90;99.90;;;;;;5001177;28;20075;-57
2023/08/18 04:58:04;;;;;;;5.50;3.83;;;16.90;99.90;;;;;;4997035;28;20038;-56
2023/08/18 05:00:30;;;;;;;6.95;3.95;;;16.80;99.90;;;;;;4987333;28;20062;-57
2023/08/18 05:02:56;;;;;;;6.28;4.20;;;16.90;99.90;;;;;;5003174;28;20038;-57
2023/08/18 05:05:22;;;;;;;6.95;4.20;;;16.90;99.90;;;;;;4987149;28;20084;-58
2023/08/18 05:07:47;;;;;;;8.90;4.30;;;16.90;99.90;;;;;;4988761;28;20096;-58
2023/08/18 05:10:13;;;;;;;8.70;4.50;;;16.80;99.90;;;;;;4987889;28;20046;-58
2023/08/18 05:12:38;;;;;;;7.93;4.10;;;16.90;99.90;;;;;;4988370;28;20500;-57
2023/08/18 05:15:04;;;;;;;8.68;4.03;;;16.90;99.90;;;;;;4987729;28;20169;-58
2023/08/18 05:17:30;;;;;;;4.70;3.95;;;16.90;99.90;;;;;;4987951;28;20072;-57
2023/08/18 05:19:56;;;;;;;9.15;4.05;;;16.90;99.90;;;;;;4988732;28;20050;-58
2023/08/18 05:22:22;;;;;;;8.40;5.00;;;16.90;99.90;;;;;;4987989;28;20436;-57
2023/08/18 05:24:48;;;;;;;7.03;4.40;;;16.90;99.90;;;;;;4988356;28;20073;-58
2023/08/18 05:27:15;;;;;;;11.95;4.40;;;16.90;99.90;;;;;;4987582;28;20045;-58
2023/08/18 05:29:40;;;;;;;7.85;4.10;;;17.00;99.90;;;;;;4985955;28;20060;-57
2023/08/18 05:32:06;;;;;;;7.90;4.03;;;17.00;99.90;;;;;;4987387;28;20046;-56
2023/08/18 05:34:32;;;;;;;6.70;4.28;;;17.00;99.90;;;;;;4987435;28;20054;-57
2023/08/18 05:36:57;;;;;;;9.00;4.35;;;17.00;99.90;;;;;;4987864;28;20164;-56
2023/08/18 05:39:23;;;;;;;8.48;4.28;;;17.00;99.90;;;;;;4989119;28;20049;-58
2023/08/18 05:41:48;;;;;;;9.82;4.38;;;17.00;99.90;;;;;;4987788;28;20054;-57
2023/08/18 05:44:14;;;;;;;7.60;4.40;;;17.00;99.90;;;;;;4985804;28;20082;-58
2023/08/18 05:46:40;;;;;;;8.55;4.30;;;17.00;99.90;;;;;;4986884;28;20460;-58
2023/08/18 05:49:07;;;;;;;8.05;4.38;;;17.10;99.90;;;;;;4985902;28;20051;-57
2023/08/18 05:51:32;;;;;;;8.68;4.22;;;17.00;99.90;;;;;;4987419;28;20050;-57
2023/08/18 05:53:58;;;;;;;7.80;4.07;;;17.10;99.90;;;;;;4987219;28;20429;-58
2023/08/18 05:56:24;;;;;;;8.80;4.20;;;17.10;99.90;;;;;;4993229;28;20046;-58
2023/08/18 05:58:49;;;;;;;11.70;4.40;;;17.10;99.90;;;;;;5002165;28;20042;-56
2023/08/18 06:01:17;;;;;;;8.20;4.75;;;17.20;99.90;;;;;;5004900;28;20702;-57
2023/08/18 06:03:42;;;;;;;5.25;3.67;;;17.10;99.90;;;;;;5006040;28;20045;-57
2023/08/18 06:06:08;;;;;;;10.18;4.72;;;17.10;99.90;;;;;;5005801;28;20721;-58
2023/08/18 06:08:34;;;;;;;6.68;3.88;;;17.20;99.90;;;;;;5004540;28;20125;-58
2023/08/18 06:11:00;;;;;;;7.25;4.18;;;17.20;99.90;;;;;;5006342;28;20046;-57
2023/08/18 06:13:25;;;;;;;7.82;4.20;;;17.10;99.90;;;;;;5006082;28;20120;-57
2023/08/18 06:15:54;;;;;;;8.73;4.20;;;17.20;99.90;;;;;;5005716;28;20054;-58
2023/08/18 06:18:20;;;;;;;5.55;3.67;;;17.20;99.90;;;;;;5007139;28;20100;-57
2023/08/18 06:20:46;;;;;;;7.63;4.10;;;17.30;99.90;;;;;;5005386;28;20050;-58
2023/08/18 06:23:11;;;;;;;7.63;4.00;;;17.20;99.90;;;;;;5005943;28;20038;-56
2023/08/18 06:25:38;;;;;;;7.35;4.00;;;17.20;99.90;;;;;;5004248;28;20050;-58
2023/08/18 06:28:05;;;;;;;7.68;3.95;;;17.30;99.90;;;;;;5005350;28;20116;-58
2023/08/18 06:30:31;;;;;;;8.43;4.70;;;17.30;99.90;;;;;;5004898;28;20100;-58
2023/08/18 06:32:56;;;;;;;8.38;3.90;;;17.50;99.90;;;;;;5006225;28;20124;-57
2023/08/18 06:35:22;;;;;;;8.07;4.55;;;17.40;99.90;;;;;;5005889;28;20121;-57
2023/08/18 06:37:48;;;;;;;9.43;4.57;;;17.40;99.90;;;;;;5005341;28;20526;-56
2023/08/18 06:40:13;;;;;;;7.65;4.28;;;17.40;99.90;;;;;;5005241;28;20050;-58
2023/08/18 06:42:39;;;;;;;6.32;3.75;;;17.40;99.90;;;;;;5005260;28;20050;-56
2023/08/18 06:45:05;;;;;;;6.90;3.72;;;17.50;99.90;;;;;;4991875;28;20121;-57
2023/08/18 06:47:31;;;;;;;8.00;4.10;;;17.50;99.90;;;;;;4985553;28;20074;-58
2023/08/18 06:49:56;;;;;;;7.60;4.20;;;17.50;99.90;;;;;;4986442;28;20535;-57
2023/08/18 06:52:22;;;;;;;7.78;4.28;;;17.50;99.90;;;;;;4986262;28;20039;-57
2023/08/18 06:54:48;;;;;;;8.65;4.50;;;17.60;99.90;;;;;;4985965;28;20084;-56
2023/08/18 06:57:13;;;;;;;9.35;4.47;;;17.60;99.90;;;;;;4993365;28;20042;-57
2023/08/18 06:59:39;;;;;;;11.63;4.28;;;17.60;99.90;;;;;;5002874;28;20119;-58
2023/08/18 07:02:04;;;;;;;8.98;3.85;;;17.60;99.90;;;;;;4996531;28;20125;-56
2023/08/18 07:04:30;;;;;;;12.10;4.40;;;17.60;99.90;;;;;;4988580;28;20742;-57
2023/08/18 07:06:56;;;;;;;9.13;4.45;;;17.70;99.90;;;;;;4992212;28;20642;-56
2023/08/18 07:09:21;;;;;;;10.63;4.15;;;17.70;99.90;;;;;;5000026;28;20750;-57
2023/08/18 07:11:47;;;;;;;9.38;4.68;;;17.80;99.90;;;;;;5005423;28;20202;-56
2023/08/18 07:14:12;;;;;;;9.02;4.55;;;17.80;99.90;;;;;;4998439;28;20073;-58
2023/08/18 07:16:38;;;;;;;7.65;5.05;;;17.80;99.90;;;;;;4998214;28;20116;-58
2023/08/18 07:19:04;;;;;;;7.90;4.07;;;17.90;99.90;;;;;;4992300;28;20101;-58
2023/08/18 07:21:29;;;;;;;7.80;4.57;;;17.90;99.90;;;;;;4986268;28;20057;-54
2023/08/18 07:23:55;;;;;;;6.45;4.20;;;17.90;99.90;;;;;;4972977;28;20057;-57
2023/08/18 07:26:20;;;;;;;7.60;4.40;;;18.00;99.90;;;;;;5005509;28;20157;-57
2023/08/18 07:28:46;;;;;;;8.30;4.35;;;18.00;99.90;;;;;;5002897;28;20064;-57
2023/08/18 07:31:12;;;;;;;9.50;4.18;;;18.10;99.90;;;;;;5006216;28;20052;-58
2023/08/18 07:33:37;;;;;;;10.85;4.22;;;18.10;99.90;;;;;;5004541;28;20543;-57
2023/08/18 07:36:03;;;;;;;8.73;4.63;;;18.10;99.90;;;;;;5005248;28;20041;-57
2023/08/18 07:38:35;;;;;;;7.88;4.78;;;18.20;99.90;;;;;;5006228;28;20762;-57
2023/08/18 07:41:02;;;;;;;7.20;4.40;;;18.20;99.90;;;;;;5005897;28;20100;-57
2023/08/18 07:43:27;;;;;;;6.07;4.30;;;18.30;99.90;;;;;;4984990;28;20042;-57
2023/08/18 07:45:53;;;;;;;7.53;4.60;;;18.30;99.90;;;;;;4983969;28;20052;-56
2023/08/18 07:48:19;;;;;;;7.28;4.47;;;18.30;99.90;;;;;;4986628;28;20052;-57
2023/08/18 07:50:44;;;;;;;5.93;4.35;;;18.30;99.90;;;;;;4994500;28;20057;-57
2023/08/18 07:53:10;;;;;;;9.98;4.97;;;18.30;99.90;;;;;;5002434;28;20095;-57
2023/08/18 07:55:36;;;;;;;7.10;4.80;;;18.30;99.90;;;;;;5000808;28;20054;-57
2023/08/18 07:58:03;;;;;;;6.90;4.20;;;18.30;99.90;;;;;;4996664;28;20045;-56
2023/08/18 08:00:30;;;;;;;7.97;4.70;;;18.30;99.90;;;;;;5004872;28;20045;-57
2023/08/18 08:02:57;;;;;;;7.20;4.68;;;18.30;99.90;;;;;;5005598;28;20095;-57
2023/08/18 08:05:23;;;;;;;10.43;5.47;;;18.40;99.90;;;;;;5005730;28;20046;-56
2023/08/18 08:07:49;;;;;;;9.13;4.75;;;18.40;99.90;;;;;;5005688;28;20053;-56
2023/08/18 08:10:15;;;;;;;7.65;5.45;;;18.40;99.90;;;;;;5004882;28;20042;-56
2023/08/18 08:12:42;;;;;;;6.78;5.00;;;18.40;99.90;;;;;;5005096;28;20054;-57
2023/08/18 08:15:09;;;;;;;6.07;4.88;;;18.40;99.90;;;;;;5004737;28;20180;-58
2023/08/18 08:17:35;;;;;;;8.80;5.80;;;18.50;99.90;;;;;;5003497;28;20038;-56
2023/08/18 08:20:16;;;;;;;10.32;5.45;;;18.50;99.90;;;;;;5005843;28;20046;-57
2023/08/18 08:22:44;;;;;;;12.00;5.68;;;18.60;99.90;;;;;;5007306;28;20042;-57
2023/08/18 08:25:10;;;;;;;8.20;5.40;;;18.70;99.90;;;;;;5008136;28;20101;-57
2023/08/18 08:27:36;;;;;;;7.35;5.40;;;18.70;99.90;;;;;;5009021;28;20041;-57
2023/08/18 08:30:02;;;;;;;8.38;5.57;;;18.80;99.90;;;;;;4997497;28;20069;-58
2023/08/18 08:32:28;;;;;;;8.32;5.72;;;18.80;99.90;;;;;;5005934;28;20034;-58
2023/08/18 08:34:54;;;;;;;8.38;5.93;;;18.80;99.90;;;;;;5000822;28;20401;-58
2023/08/18 08:37:20;;;;;;;8.98;5.65;;;18.90;99.90;;;;;;4990145;28;20401;-58
2023/08/18 08:39:45;;;;;;;9.43;5.15;;;18.90;99.90;;;;;;4988969;28;20053;-58
2023/08/18 08:42:11;;;;;;;7.20;5.65;;;18.90;99.90;;;;;;4988128;28;20048;-57
2023/08/18 08:44:37;;;;;;;7.90;5.75;;;18.90;99.90;;;;;;4988360;28;20496;-57
2023/08/18 08:47:03;;;;;;;6.18;5.57;;;18.90;99.90;;;;;;5005692;28;20065;-56
2023/08/18 08:49:30;;;;;;;7.25;5.95;;;18.90;99.90;;;;;;5006874;28;20033;-57
2023/08/18 08:52:01;;;;;;;7.72;5.93;;;18.90;99.90;;;;;;5007991;28;20081;-56
2023/08/18 08:54:30;;;;;;;9.00;6.28;;;19.00;99.90;;;;;;5007911;28;20042;-56
2023/08/18 08:56:58;;;;;;;8.90;6.20;;;19.00;99.90;;;;;;5005015;28;20042;-58
2023/08/18 08:59:24;;;;;;;8.35;5.88;;;19.10;99.90;;;;;;5005027;28;20465;-56
2023/08/18 09:01:52;;;;;;;10.65;6.10;;;19.20;99.90;;;;;;5007791;28;20290;-58
2023/08/18 09:04:18;;;;;;;8.18;5.95;;;19.20;99.90;;;;;;5006924;28;20038;-57
2023/08/18 09:06:45;;;;;;;11.30;6.13;;;19.30;99.90;;;;;;5007310;28;20042;-57
2023/08/18 09:09:11;;;;;;;10.90;5.88;;;19.50;99.90;;;;;;5007108;28;20128;-56
2023/08/18 09:11:42;;;;;;;7.53;6.25;;;19.60;99.90;;;;;;5007015;28;20125;-56
2023/08/18 09:14:12;;;;;;;7.57;5.38;;;19.70;99.90;;;;;;5005738;28;20065;-56
2023/08/18 09:16:37;;;;;;;7.97;5.40;;;19.60;99.90;;;;;;5005178;28;20577;-58
2023/08/18 09:19:03;;;;;;;10.05;5.97;;;19.60;99.90;;;;;;5006917;28;20037;-57
2023/08/18 09:21:31;;;;;;;12.38;6.60;;;19.50;99.90;;;;;;5006695;28;20040;-59
2023/08/18 09:23:57;;;;;;;10.38;6.30;;;19.50;99.90;;;;;;5006097;28;20038;-59
2023/08/18 09:26:24;;;;;;;10.25;6.88;;;19.60;99.90;;;;;;5005711;28;20522;-59
2023/08/18 09:28:50;;;;;;;11.38;6.90;;;19.70;99.90;;;;;;5005960;28;20037;-59
2023/08/18 09:31:16;;;;;;;9.95;6.63;;;20.00;99.90;;;;;;5007129;28;20046;-59
2023/08/18 09:33:42;;;;;;;7.82;6.18;;;20.00;99.90;;;;;;4994230;28;20065;-58
2023/08/18 09:36:11;;;;;;;10.93;6.40;;;20.10;99.90;;;;;;5006926;28;20077;-59
2023/08/18 09:38:43;;;;;;;12.35;6.50;;;20.20;99.90;;;;;;5006618;28;20040;-60
2023/08/18 09:41:10;;;;;;;10.23;6.18;;;20.30;99.90;;;;;;5006483;28;20046;-60
2023/08/18 09:43:36;;;;;;;8.20;6.03;;;20.40;99.90;;;;;;5006317;28;20057;-59
2023/08/18 09:46:06;;;;;;;7.93;6.22;;;20.40;99.90;;;;;;5006893;28;20038;-60
2023/08/18 09:48:39;;;;;;;8.13;6.38;;;20.50;99.90;;;;;;5006943;28;20095;-60
2023/08/18 09:51:09;;;;;;;11.40;6.32;;;20.70;99.90;;;;;;5006486;28;20048;-60
2023/08/18 09:53:39;;;;;;;8.73;6.22;;;20.80;99.90;;;;;;5006576;28;20081;-58
2023/08/18 09:56:16;;;;;;;10.07;6.10;;;20.80;99.90;;;;;;5002671;28;20070;-61
2023/08/18 09:58:55;;;;;;;11.15;5.60;;;21.00;99.90;;;;;;5002003;28;20042;-60
2023/08/18 10:01:23;;;;;;;8.63;5.95;;;21.20;99.90;;;;;;5005027;28;20049;-60
2023/08/18 10:03:49;;;;;;;8.75;6.03;;;21.40;99.90;;;;;;5003805;28;20042;-59
2023/08/18 10:06:17;;;;;;;7.10;5.88;;;21.50;99.90;;;;;;5005204;28;20050;-60
2023/08/18 10:08:43;;;;;;;10.77;6.03;;;21.50;99.90;;;;;;5005906;28;20062;-60
2023/08/18 10:11:09;;;;;;;8.50;5.97;;;21.50;99.90;;;;;;5004821;28;20069;-62
2023/08/18 10:13:37;;;;;;;10.15;6.50;;;21.50;99.90;;;;;;5002103;28;20100;-64
2023/08/18 10:16:05;;;;;;;9.48;7.22;;;21.60;99.90;;;;;;5006581;28;20496;-65
2023/08/18 10:18:31;;;;;;;13.98;7.53;;;21.60;99.90;;;;;;5006255;28;20148;-65
2023/08/18 10:20:57;;;;;;;11.52;7.68;;;21.70;99.90;;;;;;5005215;28;20049;-66
2023/08/18 10:23:25;;;;;;;9.32;6.60;;;21.90;99.90;;;;;;5005444;28;20038;-66
2023/08/18 10:25:52;;;;;;;11.05;6.90;;;21.90;99.90;;;;;;4991708;28;20085;-64
2023/08/18 10:28:19;;;;;;;9.10;6.90;;;22.00;99.90;;;;;;4995324;28;20065;-65
2023/08/18 10:30:56;;;;;;;9.70;7.10;;;22.00;99.90;;;;;;5004641;28;20113;-62
2023/08/18 10:33:31;;;;;;;9.38;6.65;;;22.10;99.90;;;;;;5005628;28;20041;-69
2023/08/18 10:35:58;;;;;;;9.63;7.00;;;22.20;99.90;;;;;;4996827;28;20707;-68
2023/08/18 10:38:29;;;;;;;9.32;6.95;;;22.20;99.90;;;;;;4989146;28;20058;-70
2023/08/18 10:40:55;;;;;;;10.45;6.68;;;22.20;99.90;;;;;;4986133;28;20050;-59
2023/08/18 10:43:27;;;;;;;9.48;7.20;;;22.20;99.90;;;;;;5002735;28;20053;-71
2023/08/18 10:45:59;;;;;;;9.20;7.32;;;22.30;99.90;;;;;;5000429;28;20080;-69
2023/08/18 10:48:33;;;;;;;10.93;6.85;;;22.40;99.90;;;;;;4993825;28;20050;-64
2023/08/18 10:51:00;;;;;;;9.65;7.22;;;22.70;99.90;;;;;;4994381;28;20056;-60
2023/08/18 10:53:31;;;;;;;10.02;7.20;;;22.80;99.90;;;;;;4999614;28;20039;-63
2023/08/18 10:55:57;;;;;;;10.32;7.00;;;22.90;99.90;;;;;;4997201;28;20125;-65
2023/08/18 10:58:22;;;;;;;12.65;6.82;;;22.90;99.90;;;;;;5004599;28;20125;-73
2023/08/18 11:00:49;;;;;;;10.45;8.02;;;23.20;99.90;;;;;;5005893;28;20053;-73
2023/08/18 11:03:15;;;;;;;10.40;8.18;;;23.20;99.90;;;;;;5005213;28;20050;-72
2023/08/18 11:05:41;;;;;;;12.30;8.00;;;23.30;99.90;;;;;;5004248;28;20536;-63
2023/08/18 11:08:15;;;;;;;9.02;7.38;;;23.60;99.90;;;;;;5005746;28;20045;-61
2023/08/18 11:10:42;;;;;;;14.88;8.82;;;23.80;99.90;;;;;;5006136;28;20720;-63
2023/08/18 11:13:26;;;;;;;10.55;9.23;;;23.80;99.90;;;;;;5005329;28;20346;-63
2023/08/18 11:15:52;;;;;;;13.48;8.98;;;23.60;99.90;;;;;;5006207;28;20060;-63
2023/08/18 11:18:20;;;;;;;13.88;9.48;;;23.40;99.90;;;;;;5006036;28;20042;-63
2023/08/18 11:20:46;;;;;;;12.90;9.38;;;23.30;99.90;;;;;;5006016;28;20125;-63
2023/08/18 11:23:11;;;;;;;13.35;9.63;;;23.30;99.90;;;;;;5006101;28;20130;-63
2023/08/18 11:25:37;;;;;;;13.98;9.75;;;23.20;99.90;;;;;;5006368;28;20129;-64
2023/08/18 11:28:03;;;;;;;12.95;9.80;;;23.20;99.90;;;;;;5004505;28;20401;-63
2023/08/18 11:30:28;;;;;;;11.63;9.45;;;23.20;99.90;;;;;;5004866;28;20061;-63
2023/08/18 11:32:54;;;;;;;12.77;9.50;;;23.30;99.90;;;;;;5006177;28;20041;-62
2023/08/18 11:35:21;;;;;;;12.55;9.32;;;23.60;99.90;;;;;;5004448;28;20041;-74
2023/08/18 11:37:47;;;;;;;13.15;8.85;;;23.90;99.90;;;;;;5005579;28;20370;-67
2023/08/18 11:40:18;;;;;;;14.05;9.95;;;24.30;99.90;;;;;;5006108;28;20448;-71
2023/08/18 11:42:45;;;;;;;11.60;8.95;;;24.60;99.90;;;;;;4995770;28;20050;-65
2023/08/18 11:45:15;;;;;;;11.13;9.18;;;24.80;99.90;;;;;;4993131;28;20129;-63
2023/08/18 11:47:41;;;;;;;12.07;9.13;;;25.00;99.90;;;;;;4997482;28;20068;-61
2023/08/18 11:50:07;;;;;;;11.98;8.50;;;25.30;99.90;;;;;;4996967;28;20600;-63
2023/08/18 11:52:44;;;;;;;11.38;8.32;;;25.60;99.90;;;;;;5005259;28;20042;-63
2023/08/18 11:55:10;;;;;;;12.52;8.40;;;25.90;99.90;;;;;;5004158;28;20050;-63
2023/08/18 11:57:40;;;;;;;13.15;8.10;;;25.90;99.90;;;;;;5000542;28;20061;-62
2023/08/18 12:00:13;;;;;;;10.73;8.68;;;26.00;99.90;;;;;;4996556;28;20595;-63
2023/08/18 12:02:46;;;;;;;10.25;8.30;;;26.10;99.90;;;;;;5000650;28;20035;-63
2023/08/18 12:05:22;;;;;;;14.85;9.93;;;26.10;99.90;;;;;;4995895;28;20119;-64
2023/08/18 12:07:54;;;;;;;13.13;9.27;;;26.00;99.90;;;;;;4989687;28;20046;-62
2023/08/18 12:10:21;;;;;;;11.70;9.38;;;25.80;99.90;;;;;;4994138;28;20079;-63
2023/08/18 12:12:53;;;;;;;10.85;8.07;;;25.60;99.90;;;;;;5007735;28;20038;-57
2023/08/18 12:15:23;;;;;;;12.32;9.90;;;25.40;99.90;;;;;;5003758;28;20057;-62
2023/08/18 12:17:49;;;;;;;13.27;9.55;;;25.30;99.90;;;;;;5005712;28;20050;-62
2023/08/18 12:20:18;;;;;;;11.18;9.02;;;25.10;99.90;;;;;;5011251;28;20049;-61
2023/08/18 12:22:45;;;;;;;12.73;9.23;;;24.90;99.90;;;;;;5012539;28;20052;-61
2023/08/18 12:25:11;;;;;;;12.82;8.48;;;24.80;99.90;;;;;;5004279;28;20125;-61
2023/08/18 12:27:36;;;;;;;12.25;9.18;;;24.80;99.90;;;;;;4997616;28;20145;-62
2023/08/18 12:30:03;;;;;;;12.80;9.57;;;24.80;99.90;;;;;;4989185;28;20488;-62
2023/08/18 12:32:30;;;;;;;16.33;9.90;;;24.80;99.90;;;;;;4999323;28;20164;-62
2023/08/18 12:34:57;;;;;;;12.02;10.02;;;24.70;99.90;;;;;;4997295;28;20701;-62
2023/08/18 12:37:23;;;;;;;13.70;9.68;;;24.70;99.90;;;;;;5006184;28;20054;-61
2023/08/18 12:39:49;;;;;;;11.48;9.60;;;24.80;99.90;;;;;;5007510;28;20045;-61
2023/08/18 12:42:15;;;;;;;11.15;9.82;;;24.80;99.90;;;;;;5006073;28;20041;-61